Time;durP1;ratioP1;P1;durP2;ratioP2;P2;SDS_P1;SDS_P2;PMS_P1;PMS_P2;Temp;Humidity;BMP_temperature;BMP_pressure;BME280_temperature;BME280_humidity;BME280_pressure;Samples;Min_cycle;Max_cycle;Signal;HPM_P1;HPM_P2
2021/12/18 08:08:43;;;;;;;3.03;2.22;;;;;;;;;;5068154;28;20942;-53
2021/12/18 08:11:09;;;;;;;2.25;1.80;;;;;;;;;;5068667;28;20202;-49
2021/12/18 08:13:35;;;;;;;3.70;1.80;;;;;;;;;;5064768;28;20258;-50
2021/12/18 08:16:00;;;;;;;3.00;1.85;;;;;;;;;;5067434;28;20170;-51
2021/12/18 08:18:26;;;;;;;5.70;1.90;;;;;;;;;;5061234;28;20240;-48
2021/12/18 08:21:23;;;;;;;3.78;1.88;;;;;;;;;;5147170;27;20704;-51
2021/12/18 08:23:49;;;;;;;3.38;1.80;;;;;;;;;;5116824;28;20263;-48
2021/12/18 08:26:15;;;;;;;2.78;1.80;;;;;;;;;;5111150;28;20574;-49
2021/12/18 08:28:41;;;;;;;5.47;1.70;;;;;;;;;;5118720;28;20555;-49
2021/12/18 08:31:06;;;;;;;2.90;1.55;;;;;;;;;;5115436;28;20184;-49
2021/12/18 08:33:32;;;;;;;2.15;1.73;;;;;;;;;;5121528;28;20212;-49
2021/12/18 08:35:58;;;;;;;1.95;1.77;;;;;;;;;;5120463;28;20180;-49
2021/12/18 08:38:24;;;;;;;1.77;1.40;;;;;;;;;;5122818;28;20189;-49
2021/12/18 08:40:50;;;;;;;4.20;2.00;;;;;;;;;;5127097;28;20200;-49
2021/12/18 08:43:17;;;;;;;2.85;1.95;;;;;;;;;;5098708;28;20208;-49
2021/12/18 08:45:43;;;;;;;4.53;2.00;;;;;;;;;;5100185;28;20268;-49
2021/12/18 08:48:09;;;;;;;2.08;1.50;;;;;;;;;;5095735;28;20273;-48
2021/12/18 08:50:35;;;;;;;4.22;1.55;;;;;;;;;;5088927;28;20193;-49
2021/12/18 08:53:01;;;;;;;3.83;1.85;;;;;;;;;;5100288;28;20690;-49
2021/12/18 08:55:27;;;;;;;3.75;1.58;;;;;;;;;;5105906;28;20264;-49
2021/12/18 08:57:53;;;;;;;2.97;1.42;;;;;;;;;;5101802;28;20197;-49
2021/12/18 09:00:21;;;;;;;5.18;1.60;;;;;;;;;;5094618;28;20210;-49
2021/12/18 09:02:48;;;;;;;3.22;1.67;;;;;;;;;;5087705;28;20399;-49
2021/12/18 09:05:14;;;;;;;2.08;1.50;;;;;;;;;;5096656;28;20185;-48
2021/12/18 09:07:40;;;;;;;2.38;1.58;;;;;;;;;;5100745;28;20226;-49
2021/12/18 09:10:07;;;;;;;3.85;1.73;;;;;;;;;;5106508;28;20212;-48
2021/12/18 09:12:33;;;;;;;2.78;1.60;;;;;;;;;;5091944;28;20186;-48
2021/12/18 09:14:59;;;;;;;4.22;1.50;;;;;;;;;;5092079;28;20231;-49
2021/12/18 09:17:26;;;;;;;2.17;1.65;;;;;;;;;;5098787;28;20220;-49
2021/12/18 09:19:52;;;;;;;2.53;1.70;;;;;;;;;;5110431;28;20213;-48
2021/12/18 09:22:18;;;;;;;2.53;1.75;;;;;;;;;;5097634;28;20284;-48
2021/12/18 09:24:47;;;;;;;2.25;1.70;;;;;;;;;;5114184;28;20177;-49
2021/12/18 09:27:15;;;;;;;2.35;1.60;;;;;;;;;;5112262;28;20177;-50
2021/12/18 09:29:42;;;;;;;1.83;1.65;;;;;;;;;;5120002;28;20200;-49
2021/12/18 09:32:08;;;;;;;2.35;1.63;;;;;;;;;;5117694;28;20173;-50
2021/12/18 09:34:34;;;;;;;4.90;1.80;;;;;;;;;;5098733;28;20241;-48
2021/12/18 09:37:01;;;;;;;3.55;1.70;;;;;;;;;;5090658;28;20192;-50
2021/12/18 09:39:27;;;;;;;3.00;1.65;;;;;;;;;;5102927;28;20232;-50
2021/12/18 09:41:54;;;;;;;2.50;1.55;;;;;;;;;;5097840;28;20177;-49
2021/12/18 09:44:38;;;;;;;2.70;1.50;;;;;;;;;;5104804;28;20174;-49
2021/12/18 09:47:04;;;;;;;5.38;1.50;;;;;;;;;;5106907;28;20177;-48
2021/12/18 09:49:31;;;;;;;2.17;1.40;;;;;;;;;;5094013;28;20259;-49
2021/12/18 09:51:57;;;;;;;2.13;1.58;;;;;;;;;;5109262;28;20475;-49
2021/12/18 09:54:23;;;;;;;2.30;1.42;;;;;;;;;;5108454;28;20622;-48
2021/12/18 09:56:49;;;;;;;2.42;1.50;;;;;;;;;;5110950;28;20200;-49
2021/12/18 09:59:16;;;;;;;4.15;1.30;;;;;;;;;;5106551;28;20215;-50
2021/12/18 10:01:42;;;;;;;2.38;1.30;;;;;;;;;;5106737;28;20204;-48
2021/12/18 10:04:24;;;;;;;2.85;1.63;;;;;;;;;;5097575;28;20185;-49
2021/12/18 10:06:50;;;;;;;3.75;1.60;;;;;;;;;;5096690;28;20181;-49
2021/12/18 10:09:22;;;;;;;2.05;1.35;;;;;;;;;;5087971;28;20454;-48
2021/12/18 10:11:50;;;;;;;2.10;1.65;;;;;;;;;;5105032;28;20209;-49
2021/12/18 10:14:16;;;;;;;1.63;1.45;;;;;;;;;;5102531;28;20241;-48
2021/12/18 10:16:50;;;;;;;2.83;1.40;;;;;;;;;;5092811;28;20181;-50
2021/12/18 10:19:26;;;;;;;1.60;1.50;;;;;;;;;;5099136;28;20229;-48
2021/12/18 10:21:56;;;;;;;1.90;1.40;;;;;;;;;;5090962;28;20181;-49
2021/12/18 10:24:22;;;;;;;3.38;1.50;;;;;;;;;;5101835;28;20559;-49
2021/12/18 10:26:48;;;;;;;1.63;1.40;;;;;;;;;;5100915;28;20185;-49
2021/12/18 10:29:24;;;;;;;1.50;1.40;;;;;;;;;;5101533;28;20173;-49
2021/12/18 10:31:50;;;;;;;1.25;1.15;;;;;;;;;;5102742;28;20723;-48
2021/12/18 10:34:20;;;;;;;1.70;1.05;;;;;;;;;;5097622;28;20588;-49
2021/12/18 10:37:04;;;;;;;1.63;1.30;;;;;;;;;;5104967;28;20209;-48
2021/12/18 10:39:30;;;;;;;2.88;1.45;;;;;;;;;;5103645;28;20206;-49
2021/12/18 10:41:56;;;;;;;1.52;1.27;;;;;;;;;;5115220;28;20169;-49
2021/12/18 10:44:22;;;;;;;1.48;1.38;;;;;;;;;;5105928;28;20204;-49
2021/12/18 10:46:53;;;;;;;1.42;1.30;;;;;;;;;;5099911;28;20191;-49
2021/12/18 10:49:21;;;;;;;2.20;1.48;;;;;;;;;;5090188;28;20193;-48
2021/12/18 10:51:48;;;;;;;1.30;1.20;;;;;;;;;;5106535;28;20234;-50
2021/12/18 10:54:14;;;;;;;1.40;1.30;;;;;;;;;;5104165;28;20263;-48
2021/12/18 10:56:41;;;;;;;1.27;1.17;;;;;;;;;;5106194;28;20291;-48
2021/12/18 10:59:24;;;;;;;2.17;1.45;;;;;;;;;;5098942;28;20182;-48
2021/12/18 11:01:52;;;;;;;1.45;1.10;;;;;;;;;;5101474;28;20545;-48
2021/12/18 11:04:29;;;;;;;2.03;1.55;;;;;;;;;;5092936;28;20984;-49
2021/12/18 11:06:56;;;;;;;1.70;1.60;;;;;;;;;;5095291;28;20292;-48
2021/12/18 11:09:31;;;;;;;1.33;1.23;;;;;;;;;;5101921;28;20181;-49
2021/12/18 11:14:31;;;;;;;2.40;1.08;;;;;;;;;;5107026;28;20193;-48
2021/12/18 11:16:59;;;;;;;2.58;1.55;;;;;;;;;;5090008;28;20181;-49
2021/12/18 11:19:26;;;;;;;1.70;1.45;;;;;;;;;;5103558;28;20592;-49
2021/12/18 11:21:53;;;;;;;1.48;1.40;;;;;;;;;;5107421;28;20455;-49
2021/12/18 11:24:20;;;;;;;2.90;1.40;;;;;;;;;;5108377;28;20337;-48
2021/12/18 11:26:46;;;;;;;1.30;1.20;;;;;;;;;;5101242;28;20190;-49
2021/12/18 11:29:15;;;;;;;1.48;1.20;;;;;;;;;;5100199;28;20177;-49
2021/12/18 11:31:42;;;;;;;1.90;1.80;;;;;;;;;;5106714;28;20184;-49
2021/12/18 11:34:08;;;;;;;1.60;1.50;;;;;;;;;;5094796;28;20576;-49
2021/12/18 11:36:38;;;;;;;2.03;1.33;;;;;;;;;;5108950;28;20272;-49
2021/12/18 11:39:04;;;;;;;1.75;1.33;;;;;;;;;;5101918;28;20188;-49
2021/12/18 11:41:30;;;;;;;1.55;1.45;;;;;;;;;;5102398;28;20181;-49
2021/12/18 11:43:56;;;;;;;2.47;1.33;;;;;;;;;;5108395;28;20439;-49
2021/12/18 11:46:33;;;;;;;1.45;1.35;;;;;;;;;;5098517;28;20192;-48
2021/12/18 11:49:01;;;;;;;1.40;1.30;;;;;;;;;;5092535;28;20185;-50
2021/12/18 11:51:27;;;;;;;1.60;1.50;;;;;;;;;;5105126;28;20196;-49
2021/12/18 11:53:54;;;;;;;1.70;1.60;;;;;;;;;;5101836;28;20449;-49
2021/12/18 11:56:20;;;;;;;1.65;1.55;;;;;;;;;;5109216;28;20189;-49
2021/12/18 11:58:47;;;;;;;1.42;1.33;;;;;;;;;;5098621;28;20185;-48
2021/12/18 12:01:16;;;;;;;1.55;1.42;;;;;;;;;;5101444;28;20213;-48
2021/12/18 12:03:44;;;;;;;1.45;1.35;;;;;;;;;;5096528;28;20552;-49
2021/12/18 12:06:26;;;;;;;1.80;1.40;;;;;;;;;;5102052;28;20181;-48
2021/12/18 12:09:13;;;;;;;1.75;1.65;;;;;;;;;;5101021;28;20173;-48
2021/12/18 12:11:58;;;;;;;1.52;1.42;;;;;;;;;;5099816;28;20189;-49
2021/12/18 12:14:25;;;;;;;1.75;1.50;;;;;;;;;;5090204;28;20185;-48
2021/12/18 12:16:51;;;;;;;1.60;1.50;;;;;;;;;;5084769;28;20219;-48
2021/12/18 12:19:21;;;;;;;1.50;1.40;;;;;;;;;;5101756;28;20556;-49
2021/12/18 12:21:54;;;;;;;1.58;1.48;;;;;;;;;;5091735;28;20603;-49
2021/12/18 12:24:22;;;;;;;2.00;1.30;;;;;;;;;;5099991;28;20182;-49
2021/12/18 12:26:49;;;;;;;1.40;1.30;;;;;;;;;;5100965;28;20180;-48
2021/12/18 12:29:17;;;;;;;1.90;1.48;;;;;;;;;;5081295;28;20201;-49
2021/12/18 12:31:57;;;;;;;1.40;1.30;;;;;;;;;;5084448;28;20268;-49
2021/12/18 12:34:24;;;;;;;1.50;1.40;;;;;;;;;;5087215;28;20592;-49
2021/12/18 12:36:57;;;;;;;2.15;1.38;;;;;;;;;;5092868;28;20269;-49
2021/12/18 12:39:23;;;;;;;1.60;1.40;;;;;;;;;;5095908;28;20208;-49
2021/12/18 12:41:52;;;;;;;1.58;1.45;;;;;;;;;;5086489;28;20564;-49
2021/12/18 12:44:35;;;;;;;1.90;1.70;;;;;;;;;;5098941;28;20229;-48
2021/12/18 12:47:18;;;;;;;1.73;1.55;;;;;;;;;;5092282;28;20236;-49
2021/12/18 12:49:45;;;;;;;4.63;2.10;;;;;;;;;;5104347;28;20213;-48
2021/12/18 12:52:19;;;;;;;6.45;2.90;;;;;;;;;;5097329;28;20483;-49
2021/12/18 12:54:53;;;;;;;6.05;2.85;;;;;;;;;;5092293;28;20185;-49
2021/12/18 12:57:22;;;;;;;7.93;3.22;;;;;;;;;;5075270;28;20234;-49
2021/12/18 12:59:48;;;;;;;9.27;3.40;;;;;;;;;;5090069;28;20596;-48
2021/12/18 13:02:14;;;;;;;7.00;3.20;;;;;;;;;;5081674;28;20182;-49
2021/12/18 13:04:40;;;;;;;5.43;3.10;;;;;;;;;;5091682;28;20189;-49
2021/12/18 13:07:07;;;;;;;6.32;3.00;;;;;;;;;;5090577;28;20223;-49
2021/12/18 13:09:36;;;;;;;5.95;2.90;;;;;;;;;;5079235;28;20189;-48
2021/12/18 13:12:06;;;;;;;3.65;2.28;;;;;;;;;;5092040;28;20686;-50
2021/12/18 13:14:42;;;;;;;5.03;2.47;;;;;;;;;;5097535;28;20188;-49
2021/12/18 13:17:18;;;;;;;5.10;2.58;;;;;;;;;;5094101;28;20187;-49
2021/12/18 13:20:02;;;;;;;5.50;2.75;;;;;;;;;;5098207;28;20208;-48
2021/12/18 13:22:32;;;;;;;4.30;2.25;;;;;;;;;;5091081;28;20182;-50
2021/12/18 13:25:04;;;;;;;5.10;2.20;;;;;;;;;;5090963;28;20180;-49
2021/12/18 13:27:30;;;;;;;4.80;2.50;;;;;;;;;;5095331;28;20196;-48
2021/12/18 13:30:15;;;;;;;7.10;2.60;;;;;;;;;;5089606;28;20210;-48
2021/12/18 13:32:54;;;;;;;3.83;1.85;;;;;;;;;;5093419;28;20199;-49
2021/12/18 13:35:20;;;;;;;4.28;2.50;;;;;;;;;;5105778;28;20559;-48
2021/12/18 13:38:00;;;;;;;3.20;2.00;;;;;;;;;;5090252;28;20223;-49
2021/12/18 13:40:33;;;;;;;3.45;1.90;;;;;;;;;;5091037;28;20206;-48
2021/12/18 13:43:05;;;;;;;4.50;1.90;;;;;;;;;;5092037;28;20261;-49
2021/12/18 13:45:31;;;;;;;6.15;2.00;;;;;;;;;;5089483;28;20168;-49
2021/12/18 13:48:02;;;;;;;2.45;2.00;;;;;;;;;;5095635;28;20190;-50
2021/12/18 13:50:28;;;;;;;4.10;2.05;;;;;;;;;;5106026;28;20567;-49
2021/12/18 13:52:56;;;;;;;3.08;2.28;;;;;;;;;;5092500;28;20266;-49
2021/12/18 13:55:28;;;;;;;4.35;2.28;;;;;;;;;;5105332;28;20185;-50
2021/12/18 13:58:20;;;;;;;4.88;2.28;;;;;;;;;;5099595;28;20185;-49
2021/12/18 14:00:51;;;;;;;5.65;2.28;;;;;;;;;;5086699;28;20252;-49
2021/12/18 14:03:18;;;;;;;3.53;2.00;;;;;;;;;;5106017;28;20435;-48
2021/12/18 14:05:44;;;;;;;5.13;2.30;;;;;;;;;;5104877;28;20184;-50
2021/12/18 14:08:12;;;;;;;7.88;2.40;;;;;;;;;;5102607;28;20204;-49
2021/12/18 14:10:38;;;;;;;5.35;2.60;;;;;;;;;;5111758;28;20444;-49
2021/12/18 14:13:05;;;;;;;4.78;2.50;;;;;;;;;;5095230;28;20647;-49
2021/12/18 14:15:31;;;;;;;5.10;2.20;;;;;;;;;;5093962;28;20190;-50
2021/12/18 14:18:00;;;;;;;5.15;2.33;;;;;;;;;;5098671;28;20331;-48
2021/12/18 14:20:26;;;;;;;3.22;2.17;;;;;;;;;;5107514;28;20311;-50
2021/12/18 14:22:57;;;;;;;3.72;2.38;;;;;;;;;;5099363;28;20199;-49
2021/12/18 14:25:23;;;;;;;4.35;2.30;;;;;;;;;;5098723;28;20189;-49
2021/12/18 14:27:53;;;;;;;5.78;2.58;;;;;;;;;;5104575;28;20447;-49
2021/12/18 14:30:21;;;;;;;3.90;2.22;;;;;;;;;;5109850;28;20240;-49
2021/12/18 14:32:48;;;;;;;4.82;2.30;;;;;;;;;;5092188;28;20231;-49
2021/12/18 14:35:15;;;;;;;2.90;2.13;;;;;;;;;;5072329;28;20258;-49
2021/12/18 14:37:52;;;;;;;4.45;2.00;;;;;;;;;;5093952;28;20184;-48
2021/12/18 14:40:20;;;;;;;3.00;2.20;;;;;;;;;;5112174;28;20208;-49
2021/12/18 14:42:55;;;;;;;4.47;2.05;;;;;;;;;;5095553;28;20181;-49
2021/12/18 14:45:24;;;;;;;3.88;2.00;;;;;;;;;;5111115;28;20180;-49
2021/12/18 14:47:51;;;;;;;4.53;1.90;;;;;;;;;;5099689;28;20173;-48
2021/12/18 14:50:26;;;;;;;4.95;2.20;;;;;;;;;;5104472;28;20268;-49
2021/12/18 14:52:55;;;;;;;4.63;2.30;;;;;;;;;;5101105;27;20290;-49
2021/12/18 14:55:32;;;;;;;5.05;2.15;;;;;;;;;;5110418;28;20518;-49
2021/12/18 14:58:00;;;;;;;3.25;2.00;;;;;;;;;;5105435;28;20315;-49
2021/12/18 15:00:28;;;;;;;2.55;1.90;;;;;;;;;;5091212;28;20209;-50
2021/12/18 15:02:58;;;;;;;4.95;2.25;;;;;;;;;;5104561;28;20176;-50
2021/12/18 15:05:28;;;;;;;3.33;2.30;;;;;;;;;;5092657;28;20315;-48
2021/12/18 15:08:06;;;;;;;4.20;1.92;;;;;;;;;;5108393;28;20172;-48
2021/12/18 15:10:49;;;;;;;4.60;2.03;;;;;;;;;;5102560;28;20617;-49
2021/12/18 15:13:17;;;;;;;3.40;2.15;;;;;;;;;;5089626;28;20261;-50
2021/12/18 15:15:43;;;;;;;4.43;1.83;;;;;;;;;;5097083;28;20573;-49
2021/12/18 15:18:09;;;;;;;4.68;2.05;;;;;;;;;;5103527;28;20284;-49
2021/12/18 15:20:35;;;;;;;4.78;2.30;;;;;;;;;;5108630;28;20228;-48
2021/12/18 15:23:01;;;;;;;2.33;2.00;;;;;;;;;;5098548;28;20515;-49
2021/12/18 15:25:27;;;;;;;2.40;1.80;;;;;;;;;;5107067;28;20180;-50
2021/12/18 15:27:53;;;;;;;2.35;1.80;;;;;;;;;;5092639;28;20185;-48
2021/12/18 15:30:19;;;;;;;3.38;1.77;;;;;;;;;;5099196;28;20178;-49
2021/12/18 15:32:45;;;;;;;2.92;2.17;;;;;;;;;;5107721;28;20177;-49
2021/12/18 15:35:11;;;;;;;3.10;1.92;;;;;;;;;;5104790;28;20260;-49
2021/12/18 15:37:37;;;;;;;2.38;1.85;;;;;;;;;;5095139;28;20336;-49
2021/12/18 15:40:04;;;;;;;1.90;1.60;;;;;;;;;;5103019;28;20204;-48
2021/12/18 15:42:31;;;;;;;3.15;1.73;;;;;;;;;;5107335;28;20254;-49
2021/12/18 15:44:57;;;;;;;2.28;1.70;;;;;;;;;;5105253;28;20196;-49
2021/12/18 15:47:24;;;;;;;1.92;1.52;;;;;;;;;;5108298;28;20177;-49
2021/12/18 15:49:50;;;;;;;2.42;1.67;;;;;;;;;;5097792;28;20181;-49
2021/12/18 15:52:16;;;;;;;2.17;1.52;;;;;;;;;;5100320;28;20199;-49
2021/12/18 15:54:43;;;;;;;1.85;1.50;;;;;;;;;;5103582;28;20220;-49
2021/12/18 15:57:09;;;;;;;1.85;1.63;;;;;;;;;;5097978;28;20482;-49
2021/12/18 15:59:35;;;;;;;1.75;1.65;;;;;;;;;;5097063;28;20201;-49
2021/12/18 16:02:01;;;;;;;1.40;1.30;;;;;;;;;;5104686;28;20177;-48
2021/12/18 16:04:27;;;;;;;1.70;1.60;;;;;;;;;;5094041;28;20257;-48
2021/12/18 16:06:54;;;;;;;1.50;1.40;;;;;;;;;;5093723;28;20260;-49
2021/12/18 16:09:20;;;;;;;2.25;1.70;;;;;;;;;;5097259;28;20451;-48
2021/12/18 16:11:46;;;;;;;2.47;1.60;;;;;;;;;;5084498;28;20182;-49
2021/12/18 16:14:12;;;;;;;1.70;1.60;;;;;;;;;;5095391;28;20257;-47
2021/12/18 16:16:38;;;;;;;2.03;1.35;;;;;;;;;;5098016;28;20272;-48
2021/12/18 16:19:04;;;;;;;1.63;1.45;;;;;;;;;;5101814;28;20177;-48
2021/12/18 16:21:31;;;;;;;2.22;1.65;;;;;;;;;;5104626;28;20209;-48
2021/12/18 16:23:57;;;;;;;1.73;1.52;;;;;;;;;;5095998;28;20169;-48
2021/12/18 16:26:23;;;;;;;2.15;1.60;;;;;;;;;;5101542;28;20174;-48
2021/12/18 16:28:49;;;;;;;1.88;1.42;;;;;;;;;;5095128;28;20270;-48
2021/12/18 16:31:15;;;;;;;1.58;1.40;;;;;;;;;;5089476;28;20208;-49
2021/12/18 16:33:42;;;;;;;2.30;1.38;;;;;;;;;;5092345;28;20559;-48
2021/12/18 16:36:14;;;;;;;1.60;1.50;;;;;;;;;;5100981;28;20180;-49
2021/12/18 16:38:40;;;;;;;2.58;1.33;;;;;;;;;;5094775;28;20276;-48
2021/12/18 16:41:07;;;;;;;1.27;1.17;;;;;;;;;;5104912;28;20201;-48
2021/12/18 16:43:34;;;;;;;1.92;1.50;;;;;;;;;;5102259;28;20196;-49
2021/12/18 16:46:00;;;;;;;1.67;1.58;;;;;;;;;;5108687;28;20200;-48
2021/12/18 16:48:28;;;;;;;1.77;1.35;;;;;;;;;;5100348;28;20337;-49
2021/12/18 16:50:54;;;;;;;1.92;1.50;;;;;;;;;;5110008;28;20211;-48
2021/12/18 16:53:20;;;;;;;1.90;1.60;;;;;;;;;;5108477;28;20219;-48
2021/12/18 16:55:46;;;;;;;1.88;1.48;;;;;;;;;;5101883;28;20396;-49
2021/12/18 16:58:12;;;;;;;2.08;1.70;;;;;;;;;;5100846;28;20184;-48
2021/12/18 17:00:38;;;;;;;1.90;1.70;;;;;;;;;;5102058;28;20205;-48
2021/12/18 17:03:04;;;;;;;1.73;1.58;;;;;;;;;;5089995;28;20189;-48
2021/12/18 17:05:31;;;;;;;1.30;1.20;;;;;;;;;;5105616;28;20264;-48
2021/12/18 17:07:58;;;;;;;1.60;1.50;;;;;;;;;;5103124;28;20222;-48
2021/12/18 17:10:24;;;;;;;1.42;1.33;;;;;;;;;;5103011;28;20268;-48
2021/12/18 17:12:50;;;;;;;1.35;1.25;;;;;;;;;;5112895;28;20192;-47
2021/12/18 17:15:16;;;;;;;1.50;1.40;;;;;;;;;;5103581;28;20182;-48
2021/12/18 17:17:42;;;;;;;1.77;1.67;;;;;;;;;;5092510;28;20190;-48
2021/12/18 17:20:10;;;;;;;1.58;1.45;;;;;;;;;;5097337;28;20209;-48
2021/12/18 17:22:36;;;;;;;2.60;1.60;;;;;;;;;;5111646;28;20185;-47
2021/12/18 17:25:07;;;;;;;1.80;1.70;;;;;;;;;;5103312;28;20192;-47
2021/12/18 17:27:34;;;;;;;1.42;1.33;;;;;;;;;;5106061;28;20185;-47
2021/12/18 17:30:00;;;;;;;1.60;1.42;;;;;;;;;;5102653;28;20185;-48
2021/12/18 17:32:27;;;;;;;1.52;1.42;;;;;;;;;;5117039;28;20205;-49
2021/12/18 17:34:53;;;;;;;3.05;1.50;;;;;;;;;;5098604;28;20417;-50
2021/12/18 17:37:19;;;;;;;2.75;1.63;;;;;;;;;;5099059;28;20186;-49
2021/12/18 17:39:45;;;;;;;2.25;1.40;;;;;;;;;;5097778;28;20193;-50
2021/12/18 17:42:12;;;;;;;1.73;1.52;;;;;;;;;;5090642;28;20187;-50
2021/12/18 17:44:39;;;;;;;3.08;1.55;;;;;;;;;;5105758;28;20235;-50
2021/12/18 17:47:05;;;;;;;1.50;1.40;;;;;;;;;;5116642;28;20169;-50
2021/12/18 17:49:32;;;;;;;1.48;1.38;;;;;;;;;;5098803;28;20610;-50
2021/12/18 17:51:58;;;;;;;1.45;1.35;;;;;;;;;;5096564;28;20185;-50
2021/12/18 17:54:24;;;;;;;1.40;1.30;;;;;;;;;;5103447;28;20560;-50
2021/12/18 17:56:50;;;;;;;4.40;1.42;;;;;;;;;;5107934;28;20183;-49
2021/12/18 17:59:16;;;;;;;2.30;1.38;;;;;;;;;;5097458;28;20670;-50
2021/12/18 18:01:42;;;;;;;4.78;1.60;;;;;;;;;;5107203;28;20413;-49
2021/12/18 18:04:08;;;;;;;1.70;1.30;;;;;;;;;;5101588;28;20184;-49
2021/12/18 18:06:34;;;;;;;1.27;1.17;;;;;;;;;;5093243;28;20205;-50
2021/12/18 18:09:00;;;;;;;1.73;1.50;;;;;;;;;;5099848;28;20215;-49
2021/12/18 18:11:27;;;;;;;1.77;1.38;;;;;;;;;;5104722;28;20185;-51
2021/12/18 18:13:54;;;;;;;2.13;1.70;;;;;;;;;;5107080;28;20699;-50
2021/12/18 18:16:22;;;;;;;1.67;1.40;;;;;;;;;;5092221;28;20292;-50
2021/12/18 18:18:48;;;;;;;1.58;1.30;;;;;;;;;;5109454;28;20598;-50
2021/12/18 18:21:14;;;;;;;2.15;1.40;;;;;;;;;;5103783;28;20212;-51
2021/12/18 18:23:40;;;;;;;1.42;1.30;;;;;;;;;;5094294;28;20199;-50
2021/12/18 18:26:06;;;;;;;1.42;1.33;;;;;;;;;;5107356;28;20210;-50
2021/12/18 18:28:34;;;;;;;1.52;1.30;;;;;;;;;;5108941;28;20174;-50
2021/12/18 18:31:02;;;;;;;1.67;1.30;;;;;;;;;;5097581;28;20188;-50
2021/12/18 18:33:29;;;;;;;1.70;1.38;;;;;;;;;;5101071;28;20458;-50
2021/12/18 18:35:55;;;;;;;1.58;1.48;;;;;;;;;;5103197;28;20205;-50
2021/12/18 18:38:21;;;;;;;1.98;1.30;;;;;;;;;;5091481;28;20268;-51
2021/12/18 18:40:47;;;;;;;2.67;1.50;;;;;;;;;;5104196;28;20213;-50
2021/12/18 18:43:14;;;;;;;2.50;1.40;;;;;;;;;;5083430;28;20255;-47
2021/12/18 18:45:40;;;;;;;2.42;1.67;;;;;;;;;;5093680;28;20604;-48
2021/12/18 18:50:41;;;;;;;1.52;1.40;;;;;;;;;;5111850;28;20185;-48
2021/12/18 18:53:08;;;;;;;1.75;1.58;;;;;;;;;;5110671;28;20205;-48
2021/12/18 18:55:34;;;;;;;2.25;1.80;;;;;;;;;;5099440;28;20299;-47
2021/12/18 18:58:01;;;;;;;2.20;1.90;;;;;;;;;;5105197;28;20202;-49
2021/12/18 19:00:28;;;;;;;2.38;1.75;;;;;;;;;;5105026;28;20591;-47
2021/12/18 19:02:55;;;;;;;2.85;1.80;;;;;;;;;;5103247;28;20177;-49
2021/12/18 19:05:21;;;;;;;3.30;2.10;;;;;;;;;;5104489;28;20192;-48
2021/12/18 19:07:47;;;;;;;4.40;1.65;;;;;;;;;;5099225;28;20592;-49
2021/12/18 19:10:15;;;;;;;2.60;1.80;;;;;;;;;;5104549;28;20193;-48
2021/12/18 19:12:42;;;;;;;2.25;1.63;;;;;;;;;;5098025;28;20177;-49
2021/12/18 19:15:10;;;;;;;2.60;1.90;;;;;;;;;;5094964;28;20273;-48
2021/12/18 19:17:36;;;;;;;4.25;1.85;;;;;;;;;;5104623;28;20640;-48
2021/12/18 19:20:08;;;;;;;3.90;1.80;;;;;;;;;;5099321;28;20760;-48
2021/12/18 19:22:35;;;;;;;4.57;1.88;;;;;;;;;;5108875;28;20250;-48
2021/12/18 19:25:02;;;;;;;4.65;2.00;;;;;;;;;;5096935;28;20208;-49
2021/12/18 19:27:32;;;;;;;3.65;1.98;;;;;;;;;;5098536;28;20174;-48
2021/12/18 19:29:59;;;;;;;2.03;1.55;;;;;;;;;;5103184;28;20173;-48
2021/12/18 19:32:25;;;;;;;5.30;2.05;;;;;;;;;;5105455;28;20186;-48
2021/12/18 19:34:52;;;;;;;4.18;2.13;;;;;;;;;;5093464;28;20185;-47
2021/12/18 19:37:18;;;;;;;3.95;2.22;;;;;;;;;;5100493;28;20177;-48
2021/12/18 19:39:44;;;;;;;4.95;2.08;;;;;;;;;;5108384;28;20213;-47
2021/12/18 19:42:10;;;;;;;4.20;2.00;;;;;;;;;;5110253;28;20466;-48
2021/12/18 19:44:36;;;;;;;3.35;1.88;;;;;;;;;;5097481;28;20197;-48
2021/12/18 19:47:02;;;;;;;3.70;1.98;;;;;;;;;;5100719;28;20589;-49
2021/12/18 19:49:28;;;;;;;4.40;1.88;;;;;;;;;;5097706;28;20194;-48
2021/12/18 19:51:54;;;;;;;2.65;1.90;;;;;;;;;;5102555;28;20578;-47
2021/12/18 19:54:20;;;;;;;2.60;2.20;;;;;;;;;;5092951;28;20178;-48
2021/12/18 19:56:47;;;;;;;3.55;1.80;;;;;;;;;;5099011;28;20183;-49
2021/12/18 19:59:13;;;;;;;2.38;1.90;;;;;;;;;;5094550;28;20182;-48
2021/12/18 20:01:46;;;;;;;2.60;1.70;;;;;;;;;;5084068;28;20266;-49
2021/12/18 20:06:57;;;;;;;4.75;1.98;;;;;;;;;;5091577;28;20199;-49
2021/12/18 20:09:23;;;;;;;2.05;1.60;;;;;;;;;;5100312;28;20491;-49
2021/12/18 20:11:49;;;;;;;2.88;1.83;;;;;;;;;;5106897;28;20256;-48
2021/12/18 20:14:15;;;;;;;4.35;2.25;;;;;;;;;;5098815;28;20265;-48
2021/12/18 20:16:41;;;;;;;3.63;2.00;;;;;;;;;;5094796;28;20245;-49
2021/12/18 20:19:07;;;;;;;2.10;1.90;;;;;;;;;;5102518;28;20617;-48
2021/12/18 20:21:33;;;;;;;4.68;1.92;;;;;;;;;;5091853;28;20206;-48
2021/12/18 20:23:59;;;;;;;6.30;2.20;;;;;;;;;;5102556;28;20184;-48
2021/12/18 20:26:24;;;;;;;3.13;1.90;;;;;;;;;;5097012;28;20459;-48
2021/12/18 20:28:51;;;;;;;2.78;1.90;;;;;;;;;;5095947;28;20191;-49
2021/12/18 20:31:17;;;;;;;1.63;1.52;;;;;;;;;;5095355;28;20565;-49
2021/12/18 20:33:44;;;;;;;3.13;1.75;;;;;;;;;;5108181;28;20181;-48
2021/12/18 20:36:10;;;;;;;3.13;1.90;;;;;;;;;;5098260;28;20912;-48
2021/12/18 20:38:37;;;;;;;2.97;1.95;;;;;;;;;;5100495;28;20185;-48
2021/12/18 20:41:05;;;;;;;1.88;1.77;;;;;;;;;;5106279;28;20659;-49
2021/12/18 20:43:31;;;;;;;2.10;1.90;;;;;;;;;;5096725;28;20611;-50
2021/12/18 20:45:58;;;;;;;2.20;1.73;;;;;;;;;;5091594;28;20178;-50
2021/12/18 20:48:24;;;;;;;1.88;1.60;;;;;;;;;;5092998;28;20499;-49
2021/12/18 20:50:51;;;;;;;2.70;1.60;;;;;;;;;;5100375;28;20216;-50
2021/12/18 20:53:17;;;;;;;2.00;1.80;;;;;;;;;;5098842;28;20275;-50
2021/12/18 20:55:43;;;;;;;2.78;1.70;;;;;;;;;;5094424;28;20196;-50
2021/12/18 20:58:10;;;;;;;2.28;1.80;;;;;;;;;;5100980;28;20193;-49
2021/12/18 21:00:44;;;;;;;1.67;1.58;;;;;;;;;;5096967;28;20471;-49
2021/12/18 21:03:13;;;;;;;1.70;1.60;;;;;;;;;;5085537;28;20300;-50
2021/12/18 21:05:39;;;;;;;3.88;2.60;;;;;;;;;;5092786;28;20177;-50
2021/12/18 21:08:06;;;;;;;2.95;2.17;;;;;;;;;;5096792;28;20253;-49
2021/12/18 21:10:35;;;;;;;2.50;1.90;;;;;;;;;;5101416;28;20196;-49
2021/12/18 21:13:02;;;;;;;2.55;2.00;;;;;;;;;;5096924;28;20185;-50
2021/12/18 21:15:28;;;;;;;2.67;1.90;;;;;;;;;;5091080;28;20194;-50
2021/12/18 21:17:54;;;;;;;2.10;1.98;;;;;;;;;;5089155;28;20524;-49
2021/12/18 21:20:21;;;;;;;2.25;2.05;;;;;;;;;;5087832;28;20216;-50
2021/12/18 21:22:47;;;;;;;2.58;2.17;;;;;;;;;;5103805;28;20326;-51
2021/12/18 21:25:13;;;;;;;3.90;1.70;;;;;;;;;;5090546;28;20174;-50
2021/12/18 21:27:40;;;;;;;5.57;2.47;;;;;;;;;;5108316;28;20176;-49
2021/12/18 21:30:08;;;;;;;2.00;1.90;;;;;;;;;;5108180;28;20556;-49
2021/12/18 21:32:34;;;;;;;3.42;2.03;;;;;;;;;;5104763;28;20196;-49
2021/12/18 21:37:27;;;;;;;2.97;2.00;;;;;;;;;;5108643;28;20213;-50
2021/12/18 21:39:53;;;;;;;4.70;2.17;;;;;;;;;;5097228;28;20197;-49
2021/12/18 21:42:20;;;;;;;2.20;1.95;;;;;;;;;;5110768;28;20242;-49
2021/12/18 21:44:46;;;;;;;2.05;1.85;;;;;;;;;;5094081;28;20212;-49
2021/12/18 21:47:14;;;;;;;2.20;2.00;;;;;;;;;;5098587;28;20234;-49
2021/12/18 21:49:40;;;;;;;2.60;2.28;;;;;;;;;;5093304;28;20170;-48
2021/12/18 21:52:07;;;;;;;2.92;2.17;;;;;;;;;;5105129;28;20626;-49
2021/12/18 21:54:33;;;;;;;2.80;1.98;;;;;;;;;;5098846;28;20184;-49
2021/12/18 21:56:58;;;;;;;3.28;2.20;;;;;;;;;;5097411;28;20181;-50
2021/12/18 21:59:25;;;;;;;2.30;2.10;;;;;;;;;;5087816;28;20185;-49
2021/12/18 22:01:52;;;;;;;2.33;2.08;;;;;;;;;;5100220;28;20436;-49
2021/12/18 22:04:18;;;;;;;2.10;2.00;;;;;;;;;;5083120;28;20170;-48
2021/12/18 22:06:45;;;;;;;3.63;2.17;;;;;;;;;;5085329;28;20202;-49
2021/12/18 22:09:11;;;;;;;1.92;1.83;;;;;;;;;;5091564;28;20588;-49
2021/12/18 22:11:46;;;;;;;4.57;2.33;;;;;;;;;;5093146;28;20235;-49
2021/12/18 22:14:19;;;;;;;1.75;1.65;;;;;;;;;;5088564;28;20195;-49
2021/12/18 22:16:46;;;;;;;1.92;1.73;;;;;;;;;;5089608;28;20183;-49
2021/12/18 22:19:13;;;;;;;2.05;1.95;;;;;;;;;;5093995;28;20226;-49
2021/12/18 22:21:39;;;;;;;2.85;2.10;;;;;;;;;;5092397;28;20580;-50
2021/12/18 22:24:05;;;;;;;2.78;2.10;;;;;;;;;;5090543;28;20285;-49
2021/12/18 22:26:31;;;;;;;3.92;1.95;;;;;;;;;;5101921;28;20265;-49
2021/12/18 22:28:57;;;;;;;2.13;1.90;;;;;;;;;;5087499;28;20268;-50
2021/12/18 22:31:23;;;;;;;2.50;2.08;;;;;;;;;;5094666;28;20749;-49
2021/12/18 22:33:49;;;;;;;3.65;1.80;;;;;;;;;;5097320;28;20182;-49
2021/12/18 22:36:15;;;;;;;1.83;1.65;;;;;;;;;;5098178;28;20200;-49
2021/12/18 22:38:41;;;;;;;2.33;2.08;;;;;;;;;;5096326;28;20181;-48
2021/12/18 22:41:07;;;;;;;2.03;1.83;;;;;;;;;;5089987;28;20267;-49
2021/12/18 22:43:33;;;;;;;2.92;1.75;;;;;;;;;;5102383;28;20177;-49
2021/12/18 22:46:07;;;;;;;2.88;1.90;;;;;;;;;;5097017;28;20181;-49
2021/12/18 22:48:33;;;;;;;4.00;1.88;;;;;;;;;;5097978;28;20189;-50
2021/12/18 22:50:59;;;;;;;2.45;1.83;;;;;;;;;;5105074;28;20185;-49
2021/12/18 22:53:25;;;;;;;1.60;1.50;;;;;;;;;;5100543;28;20182;-50
2021/12/18 22:55:51;;;;;;;3.15;1.83;;;;;;;;;;5095263;28;20189;-49
2021/12/18 22:58:17;;;;;;;3.80;1.50;;;;;;;;;;5100857;28;20280;-49
2021/12/18 23:00:43;;;;;;;3.13;1.77;;;;;;;;;;5105198;28;20232;-49
2021/12/18 23:03:10;;;;;;;2.90;1.67;;;;;;;;;;5098494;28;20555;-50
2021/12/18 23:05:37;;;;;;;3.60;1.80;;;;;;;;;;5096030;28;20180;-49